Главная страница
METAR-TAF:

METAR-TAF

Аэропорты :

Кристианстад, Швеция

широта: 55-55N, долгота: 014-05E, высота над уровнем моря: 23 м

Текущие метеонаблюдения

Эта сводка был подготовлена 22 минут назад, в 20:20 UTC
Штиль
Температура 1°C
Влажность 86%
Давление 1036 hPa
Видимость 10 км и более

METAR: ESMK 182020Z AUTO 00000KT 9999 NCD 01/M01 Q1036

Время: 22:42 (20:42 UTC)

Прогноз

Эта сводка был подготовлена 6 часа и 39 минут назад, в 14:03 UTC
Прогноз действительный с 18-го 15 UTC до 18-го 19 UTC
Ветер 8 Узел от юго-восточный
Видимость 10 км и более
Нет облачности ниже 1500 м, и нет кучево-дождевой облачности

TAF: ESMK 181403Z 1815/1819 14008KT CAVOK

Метеонаблюдения и прогнозы для более 4000 аэропортов (сводки METAR и TAF).

Имеющиеся станции представлены на карте желтыми и красными точками.

Чтобы увидеть название станции, наведите на нее мышь.

Затем щелкните, чтобы увидеть метеонаблюдения и метеопрогнозы.

Управление картой: чтобы увеличить масштаб, щелкните зеленые кнопки с черным крестиком; чтобы уменьшить масштаб, щелкните зеленую кнопку с тире; для просмотра соседних карт щелкайте зеленые стрелки.


METAR-TAF: